createdAt,value
2023-01-02T00:01:32.124Z,14.47
2023-01-02T00:03:59.967Z,14.10
2023-01-02T00:06:27.972Z,14.80
2023-01-02T00:08:57.730Z,13.98
2023-01-02T00:11:25.677Z,13.38
2023-01-02T00:13:53.511Z,14.40
2023-01-02T00:16:21.640Z,13.83
2023-01-02T00:18:49.443Z,14.50
2023-01-02T00:21:17.817Z,13.05
2023-01-02T00:23:45.838Z,14.95
2023-01-02T00:26:14.328Z,18.10
2023-01-02T00:28:42.081Z,20.68
2023-01-02T00:31:13.685Z,18.92
2023-01-02T00:33:41.697Z,15.08
2023-01-02T00:36:12.863Z,13.55
2023-01-02T00:38:41.327Z,12.65
2023-01-02T00:41:09.637Z,11.43
2023-01-02T00:43:37.633Z,10.80
2023-01-02T00:46:11.248Z,11.22
2023-01-02T00:48:35.533Z,10.93
2023-01-02T00:51:03.513Z,10.45
2023-01-02T00:53:31.482Z,10.28
2023-01-02T00:55:58.879Z,10.18
2023-01-02T00:58:26.646Z,10.30
2023-01-02T01:00:54.427Z,10.03
2023-01-02T01:03:22.221Z,9.80
2023-01-02T01:05:50.222Z,9.58
2023-01-02T01:08:17.990Z,9.40
2023-01-02T01:10:45.654Z,9.70
2023-01-02T01:13:13.333Z,10.43
2023-01-02T01:15:41.657Z,10.40
2023-01-02T01:18:09.335Z,11.10
2023-01-02T01:20:40.138Z,10.20
2023-01-02T01:23:07.911Z,10.50
2023-01-02T01:25:37.436Z,10.63
2023-01-02T01:28:05.147Z,10.45
2023-01-02T01:30:33.008Z,10.58
2023-01-02T01:33:00.492Z,10.85
2023-01-02T01:35:28.129Z,10.15
2023-01-02T01:37:56.154Z,9.85
2023-01-02T01:40:23.917Z,9.85
2023-01-02T01:42:53.945Z,10.23
2023-01-02T01:45:21.336Z,10.00
2023-01-02T01:47:55.197Z,9.63
2023-01-02T01:50:32.089Z,10.30
2023-01-02T01:53:16.343Z,9.35
2023-01-02T01:55:55.780Z,8.53
2023-01-02T01:58:36.343Z,8.80
2023-01-02T02:01:04.497Z,8.88
2023-01-02T02:03:34.546Z,9.68
2023-01-02T02:06:04.412Z,9.23
2023-01-02T02:08:55.848Z,8.70
2023-01-02T02:11:23.783Z,8.93
2023-01-02T02:13:52.008Z,7.45
2023-01-02T02:16:25.268Z,7.22
2023-01-02T02:19:04.448Z,7.28
2023-01-02T02:22:10.861Z,7.30
2023-01-02T02:27:57.514Z,7.37
2023-01-02T02:30:38.246Z,7.03
2023-01-02T02:33:16.056Z,7.70
2023-01-02T02:36:19.485Z,7.20
2023-01-02T02:39:27.696Z,7.65
2023-01-02T02:42:30.113Z,6.90
2023-01-02T02:45:05.994Z,7.65
2023-01-02T02:47:53.887Z,7.78
2023-01-02T02:50:32.577Z,6.97
2023-01-02T02:53:14.135Z,8.08
2023-01-02T02:55:52.717Z,8.93
2023-01-02T02:58:23.139Z,10.13
2023-01-02T03:00:51.095Z,9.80
2023-01-02T03:03:22.991Z,8.65
2023-01-02T03:06:20.731Z,10.85
2023-01-02T03:09:12.084Z,11.68
2023-01-02T03:12:03.120Z,12.18
2023-01-02T03:15:03.579Z,12.90
2023-01-02T03:17:51.729Z,14.95
2023-01-02T03:20:23.853Z,14.83
2023-01-02T03:22:57.037Z,13.28
2023-01-02T03:25:25.121Z,13.20
2023-01-02T03:27:57.607Z,12.55
2023-01-02T03:30:25.679Z,14.03
2023-01-02T03:33:00.418Z,12.15
2023-01-02T03:35:32.884Z,12.68
2023-01-02T03:38:05.346Z,13.10
2023-01-02T03:40:40.305Z,12.43
2023-01-02T03:43:18.388Z,12.37
2023-01-02T03:46:06.249Z,11.45
2023-01-02T03:48:43.770Z,11.65
2023-01-02T03:51:12.804Z,12.33
2023-01-02T03:53:40.848Z,11.88
2023-01-02T03:56:43.926Z,11.48
2023-01-02T03:59:38.465Z,10.95
2023-01-02T04:02:32.837Z,11.53
2023-01-02T04:05:24.213Z,11.50
2023-01-02T04:08:02.982Z,11.38
2023-01-02T04:10:33.753Z,10.75
2023-01-02T04:13:06.487Z,11.57
2023-01-02T04:15:36.696Z,12.55
2023-01-02T04:18:16.052Z,14.78
2023-01-02T04:20:49.393Z,16.90
2023-01-02T04:23:22.103Z,16.95
2023-01-02T04:26:01.228Z,14.23
2023-01-02T04:28:32.319Z,14.58
2023-01-02T04:31:11.434Z,13.60
2023-01-02T04:33:55.705Z,15.90
2023-01-02T04:36:24.097Z,13.22
2023-01-02T04:38:52.477Z,14.05
2023-01-02T04:41:26.846Z,12.65
2023-01-02T04:43:58.627Z,10.53
2023-01-02T04:46:28.712Z,11.40
2023-01-02T04:48:57.152Z,11.70
2023-01-02T04:51:25.376Z,10.82
2023-01-02T04:53:55.229Z,11.10
2023-01-02T04:56:23.310Z,9.65
2023-01-02T04:58:51.206Z,9.88
2023-01-02T05:01:21.123Z,10.43
2023-01-02T05:03:52.225Z,10.32
2023-01-02T05:06:20.176Z,8.80
2023-01-02T05:08:48.074Z,7.58
2023-01-02T05:11:20.074Z,7.00
2023-01-02T05:13:48.088Z,7.35
2023-01-02T05:16:15.864Z,7.15
2023-01-02T05:18:43.525Z,9.50
2023-01-02T05:21:31.818Z,10.88
2023-01-02T05:24:02.991Z,16.15
2023-01-02T05:26:32.470Z,36.38
2023-01-02T05:29:01.083Z,27.48
2023-01-02T05:31:29.383Z,16.85
2023-01-02T05:33:59.007Z,12.18
2023-01-02T05:36:27.697Z,9.65
2023-01-02T05:38:55.748Z,9.08
2023-01-02T05:41:25.443Z,9.23
2023-01-02T05:43:55.149Z,9.35
2023-01-02T05:46:23.161Z,9.40
2023-01-02T05:48:51.209Z,9.05
2023-01-02T05:51:20.015Z,9.83
2023-01-02T05:53:47.878Z,11.10
2023-01-02T05:56:18.173Z,11.25
2023-01-02T05:58:48.780Z,12.63
2023-01-02T06:01:20.675Z,12.05
2023-01-02T06:03:52.628Z,10.80
2023-01-02T06:06:23.508Z,10.88
2023-01-02T06:08:51.333Z,12.50
2023-01-02T06:11:19.240Z,11.60
2023-01-02T06:13:47.074Z,11.88
2023-01-02T06:16:15.040Z,12.28
2023-01-02T06:18:42.856Z,11.60
2023-01-02T06:21:15.170Z,12.15
2023-01-02T06:23:43.611Z,13.25
2023-01-02T06:26:15.807Z,12.68
2023-01-02T06:28:45.112Z,13.25
2023-01-02T06:31:15.378Z,13.75
2023-01-02T06:33:43.499Z,15.88
2023-01-02T06:36:18.741Z,18.60
2023-01-02T06:38:46.878Z,18.90
2023-01-02T06:41:15.627Z,30.10
2023-01-02T06:43:47.003Z,32.13
2023-01-02T06:46:18.725Z,29.57
2023-01-02T06:48:46.945Z,27.85
2023-01-02T06:51:18.376Z,24.27
2023-01-02T06:53:46.057Z,27.55
2023-01-02T06:56:17.315Z,31.35
2023-01-02T06:58:45.448Z,28.47
2023-01-02T07:01:17.811Z,26.35
2023-01-02T07:03:46.116Z,24.30
2023-01-02T07:06:18.580Z,21.82
2023-01-02T07:08:47.536Z,20.65
2023-01-02T07:11:22.223Z,20.68
2023-01-02T07:13:53.051Z,21.10
2023-01-02T07:16:22.885Z,19.77
2023-01-02T07:18:53.432Z,17.95
2023-01-02T07:21:22.181Z,15.83
2023-01-02T07:23:50.091Z,16.55
2023-01-02T07:26:18.547Z,16.00
2023-01-02T07:28:47.304Z,15.13
2023-01-02T07:31:19.030Z,14.20
2023-01-02T07:33:47.176Z,10.08
2023-01-02T07:36:18.372Z,8.83
2023-01-02T07:38:52.358Z,8.93
2023-01-02T07:41:24.008Z,8.98
2023-01-02T07:43:57.562Z,8.73
2023-01-02T07:46:26.009Z,8.83
2023-01-02T07:48:53.690Z,10.00
2023-01-02T07:51:26.949Z,9.35
2023-01-02T07:53:57.124Z,10.35
2023-01-02T07:56:26.393Z,10.28
2023-01-02T07:58:54.356Z,10.70
2023-01-02T08:01:22.578Z,10.75
2023-01-02T08:03:51.193Z,11.08
2023-01-02T08:06:19.873Z,10.50
2023-01-02T08:08:48.485Z,10.28
2023-01-02T08:11:20.769Z,12.05
2023-01-02T08:13:49.963Z,10.75
2023-01-02T08:16:21.040Z,10.13
2023-01-02T08:18:51.639Z,10.70
2023-01-02T08:21:19.429Z,11.18
2023-01-02T08:23:47.418Z,11.10
2023-01-02T08:26:15.580Z,12.15
2023-01-02T08:28:43.647Z,11.50
2023-01-02T08:31:17.909Z,10.98
2023-01-02T08:33:55.497Z,10.05
2023-01-02T08:36:24.141Z,9.45
2023-01-02T08:38:54.311Z,9.05
2023-01-02T08:41:40.300Z,9.50
2023-01-02T08:44:08.579Z,12.88
2023-01-02T08:46:42.284Z,10.75
2023-01-02T08:49:09.143Z,10.15
2023-01-02T08:51:37.149Z,11.25
2023-01-02T08:54:05.468Z,11.65
2023-01-02T08:56:35.037Z,10.88
2023-01-02T08:59:09.608Z,10.35
2023-01-02T09:01:41.475Z,16.40
2023-01-02T09:04:12.917Z,11.38
2023-01-02T09:06:52.547Z,12.65
2023-01-02T09:09:23.457Z,18.85
2023-01-02T09:47:21.526Z,13.08
2023-01-02T09:50:03.061Z,9.55
2023-01-02T09:52:38.552Z,9.85
2023-01-02T09:55:19.169Z,10.53
2023-01-02T09:57:55.650Z,10.90
2023-01-02T10:00:30.233Z,10.70
2023-01-02T10:03:15.283Z,10.75
2023-01-02T10:06:11.570Z,9.30
2023-01-02T10:09:24.585Z,10.80
2023-01-02T10:12:00.821Z,10.15
2023-01-02T10:14:56.234Z,8.35
2023-01-02T10:17:27.751Z,9.03
2023-01-02T10:20:25.732Z,6.97
2023-01-02T10:22:57.997Z,8.68
2023-01-02T10:25:39.593Z,6.35
2023-01-02T10:28:32.646Z,6.83
2023-01-02T10:31:07.642Z,6.95
2023-01-02T10:33:44.016Z,10.00
2023-01-02T10:36:28.928Z,7.75
2023-01-02T10:39:21.664Z,7.50
2023-01-02T10:41:54.262Z,7.60
2023-01-02T10:44:30.104Z,7.65
2023-01-02T10:46:59.582Z,7.12
2023-01-02T10:49:27.394Z,6.97
2023-01-02T10:52:22.349Z,7.58
2023-01-02T10:54:59.882Z,8.00
2023-01-02T10:57:44.620Z,7.65
2023-01-02T11:00:28.260Z,8.80
2023-01-02T11:03:02.016Z,8.30
2023-01-02T11:05:31.363Z,9.63
2023-01-02T11:07:59.873Z,8.18
2023-01-02T11:10:34.462Z,7.92
2023-01-02T11:13:11.832Z,7.50
2023-01-02T11:16:00.161Z,4.35
2023-01-02T11:18:32.262Z,6.65
2023-01-02T11:21:04.216Z,6.10
2023-01-02T11:23:42.790Z,6.25
2023-01-02T11:26:16.063Z,6.03
2023-01-02T11:28:43.941Z,6.78
2023-01-02T11:31:14.794Z,6.97
2023-01-02T11:33:44.047Z,5.60
2023-01-02T11:36:17.124Z,5.62
2023-01-02T11:38:51.412Z,5.45
2023-01-02T11:41:59.364Z,6.90
2023-01-02T11:44:49.243Z,6.92
2023-01-02T11:47:22.442Z,6.85
2023-01-02T11:49:50.967Z,8.20
2023-01-02T11:52:24.199Z,7.05
2023-01-02T11:55:18.474Z,7.40
2023-01-02T11:58:01.429Z,8.98
2023-01-02T12:00:32.690Z,9.55
2023-01-02T12:03:18.323Z,10.03
2023-01-02T12:06:06.786Z,9.75
2023-01-02T12:08:57.473Z,8.13
2023-01-02T12:11:45.751Z,8.08
2023-01-02T12:14:23.827Z,7.87
2023-01-02T12:17:17.799Z,13.65
2023-01-02T12:20:25.868Z,18.65
2023-01-02T12:23:15.997Z,26.93
2023-01-02T12:25:49.454Z,27.42
2023-01-02T12:28:57.073Z,27.77
2023-01-02T12:32:01.204Z,21.17
2023-01-02T12:34:50.309Z,20.88
2023-01-02T12:37:48.423Z,19.40
2023-01-02T12:40:50.135Z,17.25
2023-01-02T12:43:36.275Z,19.35
2023-01-02T12:46:48.838Z,18.75
2023-01-02T12:49:40.574Z,16.50
2023-01-02T12:52:20.285Z,15.58
2023-01-02T12:55:02.691Z,16.00
2023-01-02T12:57:56.500Z,16.87
2023-01-02T13:00:55.902Z,19.20
2023-01-02T13:03:44.588Z,15.98
2023-01-02T13:06:50.317Z,13.75
2023-01-02T13:09:37.909Z,8.08
2023-01-02T13:12:29.083Z,7.03
2023-01-02T13:15:13.582Z,7.42
2023-01-02T13:18:10.956Z,7.00
2023-01-02T13:21:10.045Z,7.47
2023-01-02T13:23:43.657Z,7.08
2023-01-02T13:26:22.529Z,7.72
2023-01-02T13:29:06.270Z,6.78
2023-01-02T13:31:47.508Z,6.08
2023-01-02T13:34:27.983Z,7.03
2023-01-02T13:37:13.001Z,7.15
2023-01-02T13:39:45.602Z,11.70
2023-01-02T13:42:48.944Z,16.52
2023-01-02T13:45:24.042Z,17.82
2023-01-02T13:48:03.324Z,20.32
2023-01-02T13:50:34.817Z,15.32
2023-01-02T13:53:25.952Z,18.67
2023-01-02T13:56:11.429Z,19.45
2023-01-02T13:58:47.475Z,28.25
2023-01-02T14:01:26.460Z,43.45
2023-01-02T14:04:19.166Z,53.13
2023-01-02T14:06:53.678Z,56.55
2023-01-02T14:09:20.787Z,50.92
2023-01-02T14:11:58.637Z,44.27
2023-01-02T14:14:48.124Z,47.78
2023-01-02T14:17:33.422Z,48.15
2023-01-02T14:20:36.455Z,35.80
2023-01-02T14:23:08.292Z,54.48
2023-01-02T14:25:46.423Z,66.92
2023-01-02T14:28:29.010Z,58.98
2023-01-02T14:30:58.023Z,81.63
2023-01-02T14:33:35.586Z,123.82
2023-01-02T14:36:14.539Z,68.80
2023-01-02T14:38:56.843Z,51.10
2023-01-02T14:42:11.903Z,47.45
2023-01-02T14:44:59.795Z,42.15
2023-01-02T14:47:40.908Z,41.45
2023-01-02T14:50:23.084Z,37.70
2023-01-02T14:53:29.895Z,32.35
2023-01-02T14:58:45.133Z,34.95
2023-01-02T15:01:42.848Z,37.50
2023-01-02T15:04:27.647Z,44.48
2023-01-02T15:07:19.086Z,47.67
2023-01-02T15:09:58.366Z,51.55
2023-01-02T15:12:49.097Z,54.45
2023-01-02T15:15:22.022Z,48.58
2023-01-02T15:17:54.664Z,44.67
2023-01-02T15:20:26.783Z,45.95
2023-01-02T17:02:26.774Z,34.53
2023-01-02T17:04:54.612Z,33.10
2023-01-02T17:07:22.795Z,30.30
2023-01-02T17:09:50.992Z,30.70
2023-01-02T17:12:19.067Z,29.37
2023-01-02T17:14:47.039Z,32.00
2023-01-02T17:17:14.723Z,33.28
2023-01-02T17:19:42.617Z,34.18
2023-01-02T17:22:10.603Z,35.50
2023-01-02T17:24:38.889Z,34.63
2023-01-02T17:27:06.745Z,32.28
2023-01-02T17:29:34.652Z,32.70
2023-01-02T17:32:02.758Z,33.30
2023-01-02T17:34:32.117Z,32.03
2023-01-02T17:36:59.981Z,30.97
2023-01-02T17:39:27.869Z,32.65
2023-01-02T17:41:55.719Z,33.65
2023-01-02T17:44:23.588Z,32.35
2023-01-02T17:47:23.362Z,31.45
2023-01-02T17:49:22.835Z,33.30
2023-01-02T17:51:53.175Z,30.00
2023-01-02T17:54:21.916Z,30.80
2023-01-02T17:56:51.632Z,34.20
2023-01-02T17:59:19.693Z,34.65
2023-01-02T18:01:48.851Z,34.78
2023-01-02T18:04:17.930Z,32.75
2023-01-02T18:06:46.195Z,33.18
2023-01-02T18:09:24.114Z,37.40
2023-01-02T18:11:52.338Z,35.00
2023-01-02T18:14:27.907Z,33.02
2023-01-02T18:16:56.907Z,35.50
2023-01-02T18:19:29.571Z,33.78
2023-01-02T18:21:57.448Z,36.08
2023-01-02T18:24:31.743Z,38.35
2023-01-02T18:27:20.150Z,40.58
2023-01-02T18:30:12.058Z,44.77
2023-01-02T18:32:49.824Z,39.50
2023-01-02T18:38:23.907Z,35.25
2023-01-02T18:40:52.885Z,35.05
2023-01-02T18:43:37.450Z,36.13
2023-01-02T18:46:18.518Z,38.40
2023-01-02T18:48:47.328Z,38.42
2023-01-02T18:51:22.863Z,39.08
2023-01-02T18:53:53.482Z,37.30
2023-01-02T18:56:31.043Z,35.60
2023-01-02T18:59:25.443Z,34.30
2023-01-02T19:01:55.247Z,33.50
2023-01-02T19:04:28.877Z,30.37
2023-01-02T19:07:01.546Z,29.82
2023-01-02T19:09:38.399Z,29.35
2023-01-02T19:12:36.419Z,30.25
2023-01-02T19:15:46.338Z,28.77
2023-01-02T19:18:26.987Z,30.43
2023-01-02T19:21:11.738Z,31.75
2023-01-02T19:24:05.866Z,32.42
2023-01-02T19:26:45.521Z,35.35
2023-01-02T19:29:27.761Z,36.83
2023-01-02T19:36:42.966Z,35.78
2023-01-02T19:39:47.824Z,36.20
2023-01-02T19:46:56.939Z,34.92
2023-01-02T19:49:32.948Z,34.65
2023-01-02T19:52:01.781Z,34.58
2023-01-02T19:55:10.300Z,33.45
2023-01-02T20:00:58.447Z,34.98
2023-01-02T20:03:48.994Z,32.93
2023-01-02T20:06:18.767Z,32.78
2023-01-02T20:08:47.233Z,32.30
2023-01-02T20:11:33.610Z,30.23
2023-01-02T20:14:01.946Z,29.82
2023-01-02T20:16:30.476Z,29.27
2023-01-02T20:18:58.509Z,27.98
2023-01-02T20:21:29.277Z,26.87
2023-01-02T20:23:57.740Z,25.23
2023-01-02T20:26:25.722Z,24.20
2023-01-02T20:28:53.948Z,25.43
2023-01-02T20:31:21.985Z,24.02
2023-01-02T20:33:50.162Z,23.30
2023-01-02T20:36:18.547Z,22.87
2023-01-02T20:38:46.790Z,21.55
2023-01-02T20:41:14.805Z,23.00
2023-01-02T20:43:43.146Z,22.98
2023-01-02T20:46:11.232Z,22.75
2023-01-02T20:48:39.452Z,21.35
2023-01-02T20:51:07.229Z,21.62
2023-01-02T20:53:36.271Z,21.05
2023-01-02T20:56:07.667Z,19.55
2023-01-02T20:58:35.396Z,20.00
2023-01-02T21:01:03.321Z,20.17
2023-01-02T21:03:33.905Z,19.87
2023-01-02T21:06:01.671Z,18.60
2023-01-02T21:08:29.879Z,18.32
2023-01-02T21:10:57.770Z,18.20
2023-01-02T21:13:25.923Z,18.57
2023-01-02T21:15:57.543Z,18.60
2023-01-02T21:18:29.991Z,17.17
2023-01-02T21:21:02.004Z,18.00
2023-01-02T21:23:30.825Z,18.25
2023-01-02T21:25:59.362Z,18.17
2023-01-02T21:28:27.493Z,19.15
2023-01-02T21:30:55.981Z,18.92
2023-01-02T21:33:28.719Z,19.07
2023-01-02T21:36:01.639Z,20.50
2023-01-02T21:38:30.151Z,20.23
2023-01-02T21:41:17.164Z,20.30
2023-01-02T21:43:45.928Z,19.42
2023-01-02T21:46:14.457Z,22.00
2023-01-02T21:48:42.468Z,21.23
2023-01-02T21:51:10.573Z,19.57
2023-01-02T21:53:38.640Z,19.00
2023-01-02T21:56:07.846Z,18.62
2023-01-02T21:58:36.070Z,20.08
2023-01-02T22:01:04.247Z,18.98
2023-01-02T22:03:32.326Z,20.05
2023-01-02T22:06:00.277Z,20.95
2023-01-02T22:08:28.224Z,19.30
2023-01-02T22:10:57.955Z,20.50
2023-01-02T22:13:25.824Z,19.55
2023-01-02T22:15:53.873Z,19.65
2023-01-02T22:18:21.653Z,19.62
2023-01-02T22:20:49.776Z,19.55
2023-01-02T22:23:17.814Z,20.25
2023-01-02T22:25:45.637Z,21.00
2023-01-02T22:28:13.633Z,25.45
2023-01-02T22:30:41.267Z,24.67
2023-01-02T22:33:11.685Z,26.93
2023-01-02T22:35:39.529Z,25.25
2023-01-02T22:38:07.275Z,23.27
2023-01-02T22:40:35.037Z,23.50
2023-01-02T22:43:04.769Z,20.77
2023-01-02T22:45:38.018Z,18.77
2023-01-02T22:48:12.283Z,16.42
2023-01-02T22:50:47.064Z,16.48
2023-01-02T22:53:33.196Z,14.38
2023-01-02T22:56:04.818Z,15.38
2023-01-02T22:58:32.674Z,15.53
2023-01-02T23:01:04.034Z,14.65
2023-01-02T23:03:41.984Z,14.47
2023-01-02T23:06:10.348Z,14.53
2023-01-02T23:08:40.420Z,12.88
2023-01-02T23:11:10.191Z,13.68
2023-01-02T23:13:39.222Z,12.85
2023-01-02T23:16:26.658Z,13.28
2023-01-02T23:19:14.302Z,13.50
2023-01-02T23:21:46.188Z,12.60
2023-01-02T23:24:19.109Z,13.03
2023-01-02T23:26:51.844Z,13.93
2023-01-02T23:29:21.542Z,13.80
2023-01-02T23:31:50.900Z,15.25
2023-01-02T23:34:23.425Z,18.30
2023-01-02T23:36:54.311Z,16.30
2023-01-02T23:39:27.185Z,17.95
2023-01-02T23:41:56.006Z,17.12
2023-01-02T23:44:25.670Z,18.62
2023-01-02T23:46:54.739Z,19.75
2023-01-02T23:49:23.135Z,19.82
2023-01-02T23:51:51.646Z,22.55
2023-01-02T23:54:20.595Z,22.15
2023-01-02T23:56:50.619Z,22.75
2023-01-02T23:59:22.669Z,22.50
